.
WxDataArchive / Data Records for 2012-09-28
2012-09-27 September 2012 2012-09-29

Data Records for Friday, 28 September 2012

Time	Temp	Chill	HIndex	Humid	Dewpt	 Wind 	HiWind	WindDir	Rain 	Barom 
-----	----	-----	------	-----	-----	------	------	-------	-----	----- 
00:00	52.5	52.5	52.5	87	48.7	0	0	---	0.00	30.149 
00:05	52.3	52.3	52.3	87	48.5	0	0	---	0.00	30.149 
00:10	52.2	52.2	52.2	87	48.4	0	0	---	0.00	30.149 
00:15	52.0	52.0	52.0	88	48.6	0	0	---	0.00	30.147 
00:20	52.0	52.0	52.0	88	48.6	0	0	---	0.00	30.147 
00:25	51.9	51.9	51.9	88	48.5	0	0	---	0.00	30.147 
00:30	51.7	51.7	51.7	88	48.3	0	0	---	0.00	30.147 
00:35	51.6	51.6	51.6	89	48.5	0	0	---	0.00	30.147 
00:40	51.4	51.4	51.4	89	48.3	0	0	---	0.00	30.147 
00:45	51.3	51.3	51.3	89	48.2	0	0	---	0.00	30.148 
00:50	51.1	51.1	51.1	89	48.0	0	0	---	0.00	30.148 
00:55	51.0	51.0	51.0	89	47.9	0	0	---	0.00	30.148 
01:00	51.0	51.0	51.0	90	48.2	0	0	---	0.00	30.147 
01:05	51.0	51.0	51.0	90	48.2	0	0	---	0.00	30.147 
01:10	51.0	51.0	51.0	90	48.2	0	0	---	0.00	30.147 
01:15	51.1	51.1	51.1	91	48.6	0	0	---	0.00	30.144 
01:20	51.3	51.3	51.3	91	48.8	0	1	68	0.00	30.144 
01:25	51.7	51.7	51.7	92	49.5	0	1	68	0.00	30.144 
01:30	51.9	51.9	51.9	91	49.4	0	0	---	0.00	30.133 
01:35	52.0	52.0	52.0	91	49.5	0	1	68	0.00	30.133 
01:40	52.2	52.2	52.2	91	49.7	0	2	68	0.00	30.133 
01:45	52.3	52.3	52.3	91	49.8	0	2	68	0.00	30.130 
01:50	52.3	52.3	52.3	90	49.5	0	1	68	0.00	30.130 
01:55	52.2	52.2	52.2	90	49.4	0	1	68	0.00	30.130 
02:00	52.0	52.0	52.0	90	49.2	0	1	68	0.00	30.132 
02:05	52.0	52.0	52.0	90	49.2	0	2	68	0.00	30.132 
02:10	52.0	52.0	52.0	90	49.2	0	1	68	0.00	30.132 
02:15	52.0	52.0	52.0	90	49.2	0	0	---	0.00	30.137 
02:20	52.0	52.0	52.0	90	49.2	0	0	---	0.00	30.137 
02:25	52.0	52.0	52.0	90	49.2	0	0	---	0.00	30.137 
02:30	52.0	52.0	52.0	90	49.2	0	0	---	0.00	30.136 
02:35	52.0	52.0	52.0	90	49.2	0	0	---	0.00	30.136 
02:40	52.0	52.0	52.0	90	49.2	0	0	---	0.00	30.136 
02:45	51.9	51.9	51.9	90	49.1	0	0	---	0.00	30.132 
02:50	51.9	51.9	51.9	90	49.1	0	0	---	0.00	30.132 
02:55	51.7	51.7	51.7	90	48.9	0	1	68	0.00	30.132 
03:00	51.7	51.7	51.7	90	48.9	0	0	---	0.00	30.127 
03:05	51.6	51.6	51.6	90	48.8	0	0	---	0.00	30.127 
03:10	51.6	51.6	51.6	90	48.8	0	0	---	0.00	30.127 
03:15	51.4	51.4	51.4	90	48.6	0	0	---	0.00	30.124 
03:20	51.3	51.3	51.3	90	48.5	0	0	---	0.00	30.124 
03:25	51.0	51.0	51.0	90	48.2	0	0	---	0.00	30.124 
03:30	50.8	50.8	50.8	90	48.0	0	0	---	0.00	30.121 
03:35	50.7	50.7	50.7	90	47.9	0	0	---	0.00	30.121 
03:40	50.4	50.4	50.4	90	47.6	0	0	---	0.00	30.121 
03:45	50.2	50.2	50.2	90	47.4	0	0	---	0.00	30.119 
03:50	50.1	50.1	50.1	91	47.6	0	0	---	0.00	30.119 
03:55	49.9	49.9	49.9	91	47.4	0	0	---	0.00	30.119 
04:00	49.8	49.8	49.8	91	47.3	0	0	---	0.00	30.119 
04:05	49.6	49.6	49.6	91	47.1	0	0	---	0.00	30.119 
04:10	49.5	49.5	49.5	91	47.0	0	0	---	0.00	30.119 
04:15	49.4	49.4	49.4	91	46.9	0	0	---	0.00	30.118 
04:20	49.4	49.4	49.4	91	46.9	0	0	---	0.00	30.118 
04:25	49.2	49.2	49.2	91	46.7	0	0	---	0.00	30.118 
04:30	49.2	49.2	49.2	92	47.0	0	0	---	0.00	30.117 
04:35	49.2	49.2	49.2	92	47.0	0	0	---	0.00	30.117 
04:40	49.2	49.2	49.2	92	47.0	0	0	---	0.00	30.117 
04:45	49.2	49.2	49.2	92	47.0	0	0	---	0.00	30.116 
04:50	49.1	49.1	49.1	92	46.9	0	0	---	0.00	30.116 
04:55	49.1	49.1	49.1	92	46.9	0	0	---	0.00	30.116 
05:00	48.9	48.9	48.9	92	46.7	0	0	---	0.00	30.116 
05:05	48.9	48.9	48.9	92	46.7	0	0	---	0.00	30.116 
05:10	48.9	48.9	48.9	92	46.7	0	0	---	0.00	30.116 
05:15	49.1	49.1	49.1	92	46.9	0	1	68	0.00	30.105 
05:20	49.4	49.4	49.4	93	47.5	1	3	68	0.00	30.105 
05:25	49.5	49.5	49.5	92	47.3	1	3	68	0.00	30.105 
05:30	49.6	49.6	49.6	92	47.4	1	4	68	0.00	30.105 
05:35	49.6	49.6	49.6	92	47.4	0	2	68	0.00	30.105 
05:40	49.6	49.6	49.6	92	47.4	0	2	68	0.00	30.105 
05:45	49.6	49.6	49.6	91	47.1	0	3	68	0.00	30.112 
05:50	49.6	49.6	49.6	91	47.1	0	1	68	0.00	30.112 
05:55	49.6	49.6	49.6	91	47.1	0	0	---	0.00	30.112 
06:00	49.6	49.6	49.6	91	47.1	0	0	---	0.00	30.119 
06:05	49.6	49.6	49.6	91	47.1	0	0	---	0.00	30.119 
06:10	49.6	49.6	49.6	91	47.1	0	0	---	0.00	30.119 
06:15	49.8	49.8	49.8	91	47.3	0	0	---	0.00	30.119 
06:20	49.8	49.8	49.8	91	47.3	0	1	68	0.00	30.119 
06:25	49.8	49.8	49.8	91	47.3	0	0	---	0.00	30.119 
06:30	49.8	49.8	49.8	91	47.3	0	0	---	0.00	30.117 
06:35	49.8	49.8	49.8	91	47.3	0	0	---	0.00	30.117 
06:40	49.9	49.9	49.9	92	47.7	0	0	---	0.00	30.117 
06:45	49.9	49.9	49.9	92	47.7	0	0	---	0.00	30.119 
06:50	49.9	49.9	49.9	92	47.7	0	0	---	0.00	30.119 
06:55	50.1	50.1	50.1	92	47.9	0	0	---	0.00	30.119 
07:00	50.1	50.1	50.1	92	47.9	0	0	---	0.00	30.118 
07:05	50.2	50.2	50.2	92	48.0	0	0	---	0.00	30.118 
07:10	50.4	50.4	50.4	92	48.2	0	1	68	0.00	30.118 
07:15	50.5	50.5	50.5	92	48.3	0	2	68	0.00	30.114 
07:20	50.7	50.7	50.7	91	48.2	1	3	68	0.00	30.114 
07:25	50.8	50.8	50.8	91	48.3	1	3	68	0.00	30.114 
07:30	50.7	50.7	50.7	91	48.2	1	4	68	0.00	30.110 
07:35	50.5	50.5	50.5	91	48.0	1	3	68	0.00	30.110 
07:40	50.5	50.5	50.5	91	48.0	1	3	68	0.00	30.110 
07:45	50.4	50.4	50.4	91	47.9	0	1	68	0.00	30.116 
07:50	50.4	50.4	50.4	91	47.9	0	2	68	0.00	30.116 
07:55	50.5	50.5	50.5	91	48.0	0	2	68	0.00	30.116 
08:00	50.5	50.5	50.5	91	48.0	1	3	68	0.00	30.116 
08:05	50.5	50.5	50.5	92	48.3	1	3	90	0.00	30.116 
08:10	50.5	50.5	50.5	92	48.3	1	4	112	0.00	30.116 
08:15	50.5	50.5	50.5	92	48.3	0	3	112	0.00	30.119 
08:20	50.7	50.7	50.7	92	48.5	0	1	112	0.00	30.119 
08:25	50.8	50.8	50.8	92	48.6	1	3	112	0.00	30.119 
08:30	51.0	51.0	51.0	92	48.8	0	2	112	0.00	30.121 
08:35	51.1	51.1	51.1	92	48.9	0	2	112	0.00	30.121 
08:40	51.3	51.3	51.3	92	49.1	1	5	112	0.00	30.121 
08:45	51.6	51.6	51.6	92	49.4	1	2	112	0.00	30.122 
08:50	51.6	51.6	51.6	91	49.1	2	4	112	0.00	30.122 
08:55	51.7	51.7	51.7	91	49.2	1	2	112	0.00	30.122 
09:00	51.9	51.9	51.9	91	49.4	0	2	112	0.00	30.121 
09:05	52.2	52.2	52.2	91	49.7	1	2	112	0.00	30.121 
09:10	52.5	52.5	52.5	91	49.9	1	3	112	0.00	30.121 
09:15	52.8	52.8	52.8	91	50.2	1	4	112	0.00	30.123 
09:20	52.9	52.9	52.9	90	50.0	2	4	112	0.00	30.123 
09:25	53.2	53.2	53.2	90	50.3	1	3	112	0.00	30.123 
09:30	53.5	53.5	53.5	90	50.6	1	4	112	0.00	30.123 
09:35	53.8	53.8	53.8	89	50.6	1	3	112	0.00	30.123 
09:40	53.9	53.9	53.9	88	50.4	2	7	112	0.00	30.123 
09:45	54.1	54.1	54.1	88	50.6	2	5	90	0.00	30.125 
09:50	54.2	54.2	54.2	87	50.4	2	5	90	0.00	30.125 
09:55	54.4	54.4	54.4	88	50.9	1	5	90	0.00	30.125 
10:00	54.7	54.7	54.7	87	50.9	1	3	90	0.00	30.125 
10:05	54.8	54.8	54.8	87	51.0	2	5	90	0.00	30.125 
10:10	55.0	55.0	55.0	86	50.9	1	5	90	0.00	30.125 
10:15	55.1	55.1	55.1	86	51.0	2	5	90	0.00	30.133 
10:20	55.4	55.4	55.4	86	51.3	1	4	90	0.00	30.133 
10:25	55.6	55.6	55.6	85	51.2	1	3	90	0.00	30.133 
10:30	55.7	55.7	55.7	84	50.9	2	4	90	0.00	30.135 
10:35	55.9	55.9	55.9	83	50.8	2	6	90	0.00	30.135 
10:40	56.2	56.2	56.2	83	51.1	1	3	90	0.00	30.135 
10:45	56.3	56.3	56.3	82	50.9	1	4	90	0.00	30.138 
10:50	56.5	56.5	56.5	82	51.1	1	3	90	0.00	30.138 
10:55	56.6	56.6	56.6	82	51.2	1	4	90	0.00	30.138 
11:00	56.6	56.6	56.6	81	50.8	1	4	90	0.00	30.138 
11:05	56.7	56.7	56.7	81	50.9	2	3	90	0.00	30.138 
11:10	56.9	56.9	56.9	81	51.1	2	5	90	0.00	30.138 
11:15	56.9	56.9	56.9	81	51.1	1	4	90	0.00	30.137 
11:20	57.0	57.0	57.0	80	50.9	1	2	90	0.00	30.137 
11:25	57.2	57.2	57.2	79	50.7	1	4	90	0.00	30.137 
11:30	57.2	57.2	57.2	79	50.7	2	4	90	0.00	30.135 
11:35	57.5	57.5	57.5	79	51.0	2	4	90	0.00	30.135 
11:40	57.6	57.6	57.6	78	50.8	2	5	68	0.00	30.135 
11:45	57.8	57.8	57.8	77	50.6	3	5	112	0.00	30.137 
11:50	57.8	57.8	57.8	77	50.6	3	9	68	0.00	30.137 
11:55	58.0	58.0	58.0	77	50.8	2	5	90	0.00	30.137 
12:00	58.1	58.1	58.1	76	50.6	2	5	68	0.00	30.137 
12:05	58.3	58.3	58.3	77	51.1	1	3	68	0.00	30.137 
12:10	58.3	58.3	58.3	76	50.8	2	5	68	0.00	30.137 
12:15	58.4	58.4	58.4	76	50.9	2	5	68	0.00	30.139 
12:20	58.4	58.4	58.4	77	51.2	1	3	90	0.00	30.139 
12:25	58.6	58.6	58.6	76	51.1	1	3	112	0.00	30.139 
12:30	58.7	58.7	58.7	75	50.8	2	4	90	0.00	30.139 
12:35	58.9	58.9	58.9	73	50.3	2	5	90	0.00	30.139 
12:40	59.2	59.2	59.2	73	50.5	1	3	68	0.00	30.139 
12:45	59.6	59.6	59.6	73	50.9	1	3	90	0.00	30.138 
12:50	59.8	59.8	59.8	72	50.8	2	5	90	0.00	30.138 
12:55	60.1	60.1	60.1	71	50.7	2	5	68	0.00	30.138 
13:00	60.4	60.4	60.4	71	50.9	2	4	90	0.00	30.137 
13:05	61.0	61.0	61.0	71	51.5	2	5	90	0.00	30.137 
13:10	61.3	61.3	61.3	69	51.0	2	5	90	0.00	30.137 
13:15	61.6	61.6	61.6	69	51.3	2	6	90	0.00	30.133 
13:20	61.6	61.6	61.6	68	50.9	3	10	90	0.00	30.133 
13:25	62.1	62.1	62.1	71	52.6	1	4	90	0.00	30.133 
13:30	62.6	62.6	62.6	68	51.9	2	5	90	0.00	30.132 
13:35	62.7	62.7	62.7	69	52.4	2	6	90	0.00	30.132 
13:40	63.1	63.1	63.1	69	52.8	1	5	68	0.00	30.132 
13:45	63.2	63.2	63.2	68	52.5	2	4	68	0.00	30.132 
13:50	63.5	63.5	63.5	68	52.7	1	5	90	0.00	30.132 
13:55	63.7	63.7	63.7	68	52.9	2	5	112	0.00	30.132 
14:00	63.9	63.9	63.9	63	51.1	3	6	90	0.00	30.121 
14:05	64.3	64.3	64.3	65	52.3	1	6	68	0.00	30.121 
14:10	64.3	64.3	64.3	61	50.6	3	9	90	0.00	30.121 
14:15	64.2	64.2	64.2	63	51.3	2	7	112	0.00	30.118 
14:20	64.5	64.5	64.5	64	52.0	1	3	112	0.00	30.118 
14:25	64.5	64.5	64.5	61	50.7	3	7	90	0.00	30.118 
14:30	64.7	64.7	64.7	62	51.4	2	7	90	0.00	30.116 
14:35	64.8	64.8	64.8	59	50.1	2	7	90	0.00	30.116 
14:40	64.8	64.8	64.8	59	50.1	2	6	90	0.00	30.116 
14:45	65.0	65.0	65.0	58	49.9	3	7	90	0.00	30.110 
14:50	65.3	65.3	65.3	57	49.7	2	5	90	0.00	30.110 
14:55	65.5	65.5	65.5	58	50.3	3	6	68	0.00	30.110 
15:00	65.2	65.2	65.2	56	49.1	3	6	90	0.00	30.105 
15:05	65.2	65.2	65.2	58	50.0	2	5	90	0.00	30.105 
15:10	65.2	65.2	65.2	56	49.1	1	4	90	0.00	30.105 
15:15	65.2	65.2	65.2	57	49.6	1	3	112	0.00	30.103 
15:20	65.3	65.3	65.3	56	49.2	2	4	90	0.00	30.103 
15:25	65.3	65.3	65.3	57	49.7	2	6	90	0.00	30.103 
15:30	65.3	65.3	65.3	57	49.7	2	5	112	0.00	30.102 
15:35	65.3	65.3	65.3	60	51.1	1	6	90	0.00	30.102 
15:40	65.3	65.3	65.3	58	50.1	2	5	90	0.00	30.102 
15:45	65.5	65.5	65.5	59	50.8	2	6	90	0.00	30.101 
15:50	65.5	65.5	65.5	57	49.9	2	8	112	0.00	30.101 
15:55	65.5	65.5	65.5	56	49.4	2	6	112	0.00	30.101 
16:00	65.3	65.3	65.3	58	50.1	1	4	68	0.00	30.095 
16:05	65.3	65.3	65.3	57	49.7	1	3	68	0.00	30.095 
16:10	65.3	65.3	65.3	54	48.2	3	5	90	0.00	30.095 
16:15	65.2	65.2	65.2	53	47.6	2	5	68	0.00	30.089 
16:20	65.2	65.2	65.2	53	47.6	2	6	68	0.00	30.089 
16:25	65.3	65.3	65.3	53	47.7	2	6	112	0.00	30.089 
16:30	65.3	65.3	65.3	54	48.2	2	5	112	0.00	30.085 
16:35	65.3	65.3	65.3	53	47.7	2	5	90	0.00	30.085 
16:40	65.3	65.3	65.3	54	48.2	2	5	90	0.00	30.085 
16:45	65.3	65.3	65.3	55	48.7	2	4	90	0.00	30.076 
16:50	65.3	65.3	65.3	55	48.7	2	5	90	0.00	30.076 
16:55	65.3	65.3	65.3	54	48.2	1	5	112	0.00	30.076 
17:00	65.2	65.2	65.2	54	48.1	1	3	112	0.00	30.075 
17:05	65.2	65.2	65.2	53	47.6	1	3	112	0.00	30.075 
17:10	65.2	65.2	65.2	54	48.1	1	3	112	0.00	30.075 
17:15	65.2	65.2	65.2	53	47.6	2	6	112	0.00	30.073 
17:20	65.2	65.2	65.2	54	48.1	1	4	112	0.00	30.073 
17:25	65.2	65.2	65.2	54	48.1	1	4	112	0.00	30.073 
17:30	65.0	65.0	65.0	54	47.9	1	4	90	0.00	30.074 
17:35	65.0	65.0	65.0	54	47.9	1	3	90	0.00	30.074 
17:40	65.0	65.0	65.0	54	47.9	1	3	90	0.00	30.074 
17:45	65.0	65.0	65.0	54	47.9	1	4	90	0.00	30.073 
17:50	65.0	65.0	65.0	54	47.9	0	4	90	0.00	30.073 
17:55	65.0	65.0	65.0	55	48.4	0	1	90	0.00	30.073 
18:00	65.0	65.0	65.0	54	47.9	1	3	90	0.00	30.073 
18:05	65.0	65.0	65.0	54	47.9	1	3	90	0.00	30.073 
18:10	65.0	65.0	65.0	53	47.4	1	5	90	0.00	30.073 
18:15	65.0	65.0	65.0	56	48.9	0	1	112	0.00	30.075 
18:20	64.8	64.8	64.8	54	47.8	0	3	112	0.00	30.075 
18:25	64.7	64.7	64.7	55	48.2	0	1	112	0.00	30.075 
18:30	64.7	64.7	64.7	56	48.6	0	2	112	0.00	30.077 
18:35	64.7	64.7	64.7	55	48.2	0	1	112	0.00	30.077 
18:40	64.5	64.5	64.5	56	48.4	0	1	112	0.00	30.077 
18:45	64.5	64.5	64.5	57	48.9	0	0	---	0.00	30.074 
18:50	64.3	64.3	64.3	57	48.7	0	0	---	0.00	30.074 
18:55	64.2	64.2	64.2	58	49.1	0	1	112	0.00	30.074 
19:00	63.9	63.9	63.9	57	48.4	0	1	112	0.00	30.072 
19:05	63.7	63.7	63.7	58	48.6	0	0	---	0.00	30.072 
19:10	63.4	63.4	63.4	58	48.4	0	1	112	0.00	30.072 
19:15	63.1	63.1	63.1	58	48.1	0	0	---	0.00	30.069 
19:20	62.6	62.6	62.6	59	48.1	0	0	---	0.00	30.069 
19:25	62.1	62.1	62.1	59	47.6	0	0	---	0.00	30.069 
19:30	61.5	61.5	61.5	61	47.9	0	0	---	0.00	30.073 
19:35	60.9	60.9	60.9	62	47.8	0	0	---	0.00	30.073 
19:40	60.4	60.4	60.4	64	48.2	0	0	---	0.00	30.073 
19:45	59.9	59.9	59.9	65	48.1	0	0	---	0.00	30.076 
19:50	59.5	59.5	59.5	66	48.1	0	0	---	0.00	30.076 
19:55	59.0	59.0	59.0	67	48.1	0	0	---	0.00	30.076 
20:00	58.7	58.7	58.7	67	47.8	0	0	---	0.00	30.075 
20:05	58.1	58.1	58.1	68	47.6	0	0	---	0.00	30.075 
20:10	57.6	57.6	57.6	70	47.9	0	0	---	0.00	30.075 
20:15	57.2	57.2	57.2	72	48.3	0	0	---	0.00	30.079 
20:20	56.7	56.7	56.7	73	48.1	0	0	---	0.00	30.079 
20:25	56.5	56.5	56.5	75	48.7	0	0	---	0.00	30.079 
20:30	56.0	56.0	56.0	75	48.2	0	0	---	0.00	30.081 
20:35	55.7	55.7	55.7	76	48.3	0	0	---	0.00	30.081 
20:40	55.4	55.4	55.4	77	48.3	0	0	---	0.00	30.081 
20:45	55.3	55.3	55.3	78	48.6	0	0	---	0.00	30.083 
20:50	55.0	55.0	55.0	78	48.3	0	0	---	0.00	30.083 
20:55	54.7	54.7	54.7	79	48.3	0	0	---	0.00	30.083 
21:00	54.4	54.4	54.4	80	48.4	0	0	---	0.00	30.085 
21:05	54.2	54.2	54.2	81	48.5	0	0	---	0.00	30.085 
21:10	53.9	53.9	53.9	81	48.2	0	0	---	0.00	30.085 
21:15	53.6	53.6	53.6	82	48.2	0	0	---	0.00	30.088 
21:20	53.5	53.5	53.5	83	48.5	0	0	---	0.00	30.088 
21:25	53.2	53.2	53.2	83	48.2	0	0	---	0.00	30.088 
21:30	53.1	53.1	53.1	84	48.4	0	0	---	0.00	30.089 
21:35	52.9	52.9	52.9	84	48.2	0	0	---	0.00	30.089 
21:40	52.8	52.8	52.8	84	48.1	0	0	---	0.00	30.089 
21:45	52.5	52.5	52.5	84	47.8	0	0	---	0.00	30.092 
21:50	52.2	52.2	52.2	85	47.8	0	0	---	0.00	30.092 
21:55	52.0	52.0	52.0	85	47.6	0	0	---	0.00	30.092 
22:00	51.9	51.9	51.9	86	47.8	0	0	---	0.00	30.096 
22:05	51.7	51.7	51.7	86	47.6	0	0	---	0.00	30.096 
22:10	51.6	51.6	51.6	87	47.9	0	0	---	0.00	30.096 
22:15	51.4	51.4	51.4	87	47.7	0	0	---	0.00	30.099 
22:20	51.4	51.4	51.4	87	47.7	0	0	---	0.00	30.099 
22:25	51.3	51.3	51.3	87	47.6	0	0	---	0.00	30.099 
22:30	51.1	51.1	51.1	87	47.4	0	0	---	0.00	30.102 
22:35	50.8	50.8	50.8	88	47.4	0	0	---	0.00	30.102 
22:40	50.7	50.7	50.7	88	47.3	0	0	---	0.00	30.102 
22:45	50.5	50.5	50.5	88	47.1	0	0	---	0.00	30.101 
22:50	50.4	50.4	50.4	88	47.0	0	0	---	0.00	30.101 
22:55	50.2	50.2	50.2	88	46.8	0	0	---	0.00	30.101 
23:00	50.1	50.1	50.1	89	47.0	0	0	---	0.00	30.103 
23:05	49.9	49.9	49.9	89	46.8	0	0	---	0.00	30.103 
23:10	49.8	49.8	49.8	89	46.7	0	0	---	0.00	30.103 
23:15	49.8	49.8	49.8	89	46.7	0	0	---	0.00	30.106 
23:20	49.6	49.6	49.6	89	46.5	0	0	---	0.00	30.106 
23:25	49.5	49.5	49.5	90	46.7	0	0	---	0.00	30.106 
23:30	49.5	49.5	49.5	90	46.7	0	0	---	0.00	30.105 
23:35	49.5	49.5	49.5	90	46.7	0	0	---	0.00	30.105 
23:40	49.4	49.4	49.4	90	46.6	0	0	---	0.00	30.105 
23:45	49.2	49.2	49.2	90	46.4	0	0	---	0.00	30.102 
23:50	49.1	49.1	49.1	90	46.3	0	0	---	0.00	30.102 
23:55	49.1	49.1	49.1	91	46.6	0	0	---	0.00	30.102 

CoCoRaHS
IN-AL-39
A2 Web Hosting
Creative Commons License
GoDaddy
search engine by freefind advanced

loaded 2018-11-15 18:59:54 • last modified 2010-11-18 10:43:29
Privacy PolicyDisclaimer
• wx.awcolley.com is powered by PmWiki v.2002016 •
• all content (unless otherwise noted) © 2018 A W Colley